JST297 NZAA-NZQN
Flight info
| Callsign | JST297 |
|---|---|
| Flight time | 1h 36m |
| Altitude | 38000 |
| Route | KAPAI Y320 DOVOT |
| Aircraft | A320/M-SDE3FGHIRWYZ/LB1 |
Departure
| Time | 2026-04-26 22:42 |
|---|---|
| Airport | Auckland International Airport (NZAA) |
Arrival
| Time | 2026-04-27 00:18 |
|---|---|
| Airport | Queenstown Airport (NZQN) |
| Time | Latitude | Longitude | Altitude | Speed | Heading |
|---|---|---|---|---|---|
| 2026-04-26 21:47 | -37.00692 | 174.78858 | 29 ft | 0 kts | 70° |
| 2026-04-26 22:33 | -37.00699 | 174.78833 | 25 ft | 4 kts | 70° |
| 2026-04-26 22:33 | -37.00717 | 174.78769 | 26 ft | 3 kts | 71° |
| 2026-04-26 22:33 | -37.00713 | 174.78786 | 27 ft | 4 kts | 73° |
| 2026-04-26 22:34 | -37.00718 | 174.78811 | 27 ft | 4 kts | 137° |
| 2026-04-26 22:34 | -37.00741 | 174.78821 | 28 ft | 4 kts | 160° |
| 2026-04-26 22:34 | -37.00767 | 174.78832 | 26 ft | 4 kts | 161° |
| 2026-04-26 22:34 | -37.00779 | 174.78838 | 26 ft | 1 kts | 161° |
| 2026-04-26 22:38 | -37.00793 | 174.78844 | 30 ft | 7 kts | 161° |
| 2026-04-26 22:38 | -37.00857 | 174.78869 | 30 ft | 11 kts | 166° |
| 2026-04-26 22:38 | -37.00923 | 174.78922 | 26 ft | 13 kts | 104° |
| 2026-04-26 22:39 | -37.00900 | 174.79033 | 25 ft | 14 kts | 70° |
| 2026-04-26 22:39 | -37.00865 | 174.79158 | 27 ft | 16 kts | 71° |
| 2026-04-26 22:39 | -37.00826 | 174.79302 | 25 ft | 18 kts | 71° |
| 2026-04-26 22:39 | -37.00783 | 174.79463 | 25 ft | 21 kts | 72° |
| 2026-04-26 22:40 | -37.00737 | 174.79633 | 25 ft | 21 kts | 71° |
| 2026-04-26 22:40 | -37.00686 | 174.79809 | 25 ft | 23 kts | 70° |
| 2026-04-26 22:40 | -37.00643 | 174.79974 | 25 ft | 19 kts | 91° |
| 2026-04-26 22:40 | -37.00718 | 174.80105 | 27 ft | 18 kts | 130° |
| 2026-04-26 22:41 | -37.00805 | 174.80074 | 25 ft | 17 kts | 249° |
| 2026-04-26 22:41 | -37.00884 | 174.79799 | 25 ft | 65 kts | 251° |
| 2026-04-26 22:41 | -37.01097 | 174.79021 | 28 ft | 122 kts | 251° |
| 2026-04-26 22:41 | -37.01431 | 174.77854 | 198 ft | 148 kts | 247° |
| 2026-04-26 22:42 | -37.01765 | 174.76659 | 819 ft | 146 kts | 245° |
| 2026-04-26 22:42 | -37.02412 | 174.75724 | 1382 ft | 146 kts | 210° |
| 2026-04-26 22:42 | -37.03341 | 174.75162 | 1842 ft | 157 kts | 202° |
| 2026-04-26 22:42 | -37.04437 | 174.74640 | 2140 ft | 179 kts | 201° |
| 2026-04-26 22:43 | -37.05677 | 174.74075 | 2413 ft | 204 kts | 200° |
| 2026-04-26 22:43 | -37.07092 | 174.73433 | 2809 ft | 228 kts | 200° |
| 2026-04-26 22:43 | -37.08656 | 174.72724 | 3379 ft | 246 kts | 200° |
| 2026-04-26 22:43 | -37.10294 | 174.71984 | 4239 ft | 252 kts | 200° |
| 2026-04-26 22:44 | -37.11967 | 174.71239 | 5134 ft | 257 kts | 200° |
| 2026-04-26 22:44 | -37.13677 | 174.70480 | 5994 ft | 263 kts | 200° |
| 2026-04-26 22:44 | -37.15424 | 174.69704 | 6860 ft | 268 kts | 200° |
| 2026-04-26 22:44 | -37.17203 | 174.68916 | 7672 ft | 273 kts | 200° |
| 2026-04-26 22:45 | -37.18990 | 174.68124 | 8495 ft | 277 kts | 200° |
| 2026-04-26 22:45 | -37.20821 | 174.67316 | 9353 ft | 280 kts | 200° |
| 2026-04-26 22:45 | -37.22671 | 174.66500 | 10180 ft | 283 kts | 200° |
| 2026-04-26 22:45 | -37.24608 | 174.65645 | 10468 ft | 306 kts | 200° |
| 2026-04-26 22:46 | -37.26697 | 174.64718 | 10683 ft | 328 kts | 200° |
| 2026-04-26 22:46 | -37.28856 | 174.63760 | 11244 ft | 335 kts | 200° |
| 2026-04-26 22:46 | -37.31069 | 174.62778 | 11935 ft | 339 kts | 200° |
| 2026-04-26 22:46 | -37.33311 | 174.61783 | 12648 ft | 342 kts | 200° |
| 2026-04-26 22:47 | -37.35566 | 174.60780 | 13361 ft | 345 kts | 200° |
| 2026-04-26 22:47 | -37.37845 | 174.59764 | 14068 ft | 348 kts | 200° |
| 2026-04-26 22:47 | -37.40146 | 174.58741 | 14679 ft | 351 kts | 200° |
| 2026-04-26 22:47 | -37.42466 | 174.57710 | 15297 ft | 354 kts | 200° |
| 2026-04-26 22:48 | -37.44768 | 174.56684 | 15880 ft | 357 kts | 200° |
| 2026-04-26 22:48 | -37.47151 | 174.55623 | 16493 ft | 360 kts | 200° |
| 2026-04-26 22:48 | -37.49494 | 174.54579 | 17102 ft | 363 kts | 200° |
| 2026-04-26 22:48 | -37.51885 | 174.53511 | 17712 ft | 366 kts | 200° |
| 2026-04-26 22:49 | -37.54298 | 174.52423 | 18327 ft | 369 kts | 201° |
| 2026-04-26 22:49 | -37.56701 | 174.51237 | 18892 ft | 372 kts | 203° |
| 2026-04-26 22:49 | -37.59097 | 174.49952 | 19459 ft | 374 kts | 204° |
| 2026-04-26 22:49 | -37.61490 | 174.48615 | 20036 ft | 377 kts | 205° |
| 2026-04-26 22:50 | -37.63896 | 174.47259 | 20608 ft | 380 kts | 205° |
| 2026-04-26 22:50 | -37.66297 | 174.45915 | 21149 ft | 383 kts | 204° |
| 2026-04-26 22:50 | -37.68752 | 174.44557 | 21695 ft | 386 kts | 204° |
| 2026-04-26 22:50 | -37.71233 | 174.43203 | 22225 ft | 389 kts | 204° |
| 2026-04-26 22:51 | -37.73731 | 174.41848 | 22740 ft | 392 kts | 204° |
| 2026-04-26 22:51 | -37.76253 | 174.40479 | 23248 ft | 395 kts | 204° |
| 2026-04-26 22:51 | -37.78788 | 174.39102 | 23734 ft | 397 kts | 204° |
| 2026-04-26 22:51 | -37.81305 | 174.37730 | 24144 ft | 400 kts | 204° |
| 2026-04-26 22:52 | -37.83874 | 174.36328 | 24552 ft | 402 kts | 204° |
| 2026-04-26 22:52 | -37.86458 | 174.34915 | 24958 ft | 405 kts | 204° |
| 2026-04-26 22:52 | -37.89048 | 174.33496 | 25360 ft | 407 kts | 204° |
| 2026-04-26 22:52 | -37.91652 | 174.32064 | 25752 ft | 409 kts | 204° |
| 2026-04-26 22:53 | -37.94269 | 174.30625 | 26139 ft | 411 kts | 204° |
| 2026-04-26 22:53 | -37.96901 | 174.29179 | 26525 ft | 413 kts | 204° |
| 2026-04-26 22:53 | -37.99514 | 174.27751 | 26892 ft | 415 kts | 204° |
| 2026-04-26 22:53 | -38.02170 | 174.26300 | 27271 ft | 416 kts | 204° |
| 2026-04-26 22:54 | -38.04839 | 174.24838 | 27648 ft | 418 kts | 204° |
| 2026-04-26 22:54 | -38.07524 | 174.23364 | 28018 ft | 420 kts | 204° |
| 2026-04-26 22:54 | -38.10219 | 174.21885 | 28388 ft | 422 kts | 204° |
| 2026-04-26 22:54 | -38.12920 | 174.20398 | 28756 ft | 424 kts | 204° |
| 2026-04-26 22:55 | -38.15635 | 174.18901 | 29121 ft | 426 kts | 204° |
| 2026-04-26 22:55 | -38.18338 | 174.17406 | 29476 ft | 428 kts | 204° |
| 2026-04-26 22:55 | -38.21075 | 174.15891 | 29833 ft | 430 kts | 204° |
| 2026-04-26 22:55 | -38.23828 | 174.14373 | 30214 ft | 430 kts | 204° |
| 2026-04-26 22:56 | -38.26569 | 174.12858 | 30654 ft | 428 kts | 204° |
| 2026-04-26 22:56 | -38.29302 | 174.11343 | 31081 ft | 427 kts | 204° |
| 2026-04-26 22:56 | -38.32028 | 174.09830 | 31503 ft | 426 kts | 205° |
| 2026-04-26 22:56 | -38.34708 | 174.08342 | 31920 ft | 424 kts | 205° |
| 2026-04-26 22:57 | -38.37411 | 174.06841 | 32347 ft | 423 kts | 205° |
| 2026-04-26 22:57 | -38.40111 | 174.05343 | 32772 ft | 422 kts | 205° |
| 2026-04-26 22:57 | -38.42802 | 174.03849 | 33193 ft | 421 kts | 205° |
| 2026-04-26 22:57 | -38.45491 | 174.02348 | 33620 ft | 420 kts | 205° |
| 2026-04-26 22:58 | -38.48138 | 174.00869 | 34037 ft | 419 kts | 205° |
| 2026-04-26 22:58 | -38.50813 | 173.99376 | 34430 ft | 418 kts | 205° |
| 2026-04-26 22:58 | -38.53482 | 173.97887 | 34776 ft | 418 kts | 205° |
| 2026-04-26 22:58 | -38.55248 | 173.96900 | 34994 ft | 417 kts | 205° |
| 2026-04-26 22:59 | -38.57919 | 173.95406 | 35308 ft | 417 kts | 205° |
| 2026-04-26 22:59 | -38.61445 | 173.93436 | 35720 ft | 417 kts | 205° |
| 2026-04-26 22:59 | -38.64101 | 173.91950 | 36023 ft | 417 kts | 205° |
| 2026-04-26 22:59 | -38.66765 | 173.90460 | 36325 ft | 416 kts | 205° |
| 2026-04-26 23:00 | -38.68526 | 173.89474 | 36522 ft | 416 kts | 205° |
| 2026-04-26 23:00 | -38.71186 | 173.87981 | 36801 ft | 416 kts | 205° |
| 2026-04-26 23:00 | -38.73843 | 173.86494 | 37087 ft | 416 kts | 205° |
| 2026-04-26 23:00 | -38.76491 | 173.85012 | 37364 ft | 415 kts | 205° |
| 2026-04-26 23:01 | -38.79147 | 173.83520 | 37635 ft | 415 kts | 205° |
| 2026-04-26 23:01 | -38.81759 | 173.82049 | 37887 ft | 415 kts | 206° |
| 2026-04-26 23:01 | -38.84403 | 173.80557 | 38128 ft | 415 kts | 206° |
| 2026-04-26 23:02 | -38.89725 | 173.77550 | 38199 ft | 420 kts | 206° |
| 2026-04-26 23:02 | -38.95083 | 173.74523 | 38204 ft | 420 kts | 206° |
| 2026-04-26 23:03 | -39.00409 | 173.71514 | 38202 ft | 420 kts | 206° |
| 2026-04-26 23:03 | -39.05638 | 173.68205 | 38199 ft | 417 kts | 215° |
| 2026-04-26 23:04 | -39.10490 | 173.64084 | 38204 ft | 417 kts | 215° |
| 2026-04-26 23:04 | -39.15322 | 173.60000 | 38211 ft | 417 kts | 215° |
| 2026-04-26 23:05 | -39.20184 | 173.55895 | 38220 ft | 417 kts | 215° |
| 2026-04-26 23:05 | -39.25044 | 173.51787 | 38223 ft | 417 kts | 215° |
| 2026-04-26 23:06 | -39.29898 | 173.47673 | 38228 ft | 417 kts | 215° |
| 2026-04-26 23:06 | -39.34713 | 173.43573 | 38234 ft | 417 kts | 215° |
| 2026-04-26 23:07 | -39.39552 | 173.39442 | 38232 ft | 416 kts | 215° |
| 2026-04-26 23:07 | -39.44392 | 173.35320 | 38232 ft | 416 kts | 215° |
| 2026-04-26 23:08 | -39.49222 | 173.31199 | 38238 ft | 415 kts | 215° |
| 2026-04-26 23:08 | -39.54012 | 173.27098 | 38234 ft | 414 kts | 216° |
| 2026-04-26 23:09 | -39.58814 | 173.22969 | 38243 ft | 414 kts | 216° |
| 2026-04-26 23:09 | -39.63619 | 173.18835 | 38236 ft | 413 kts | 216° |
| 2026-04-26 23:10 | -39.68413 | 173.14721 | 38235 ft | 413 kts | 216° |
| 2026-04-26 23:10 | -39.73169 | 173.10623 | 38239 ft | 412 kts | 216° |
| 2026-04-26 23:11 | -39.77944 | 173.06489 | 38239 ft | 411 kts | 216° |
| 2026-04-26 23:11 | -39.82708 | 173.02364 | 38238 ft | 411 kts | 216° |
| 2026-04-26 23:12 | -39.87466 | 172.98241 | 38242 ft | 410 kts | 216° |
| 2026-04-26 23:12 | -39.92196 | 172.94140 | 38240 ft | 410 kts | 216° |
| 2026-04-26 23:13 | -39.96938 | 172.90014 | 38236 ft | 409 kts | 216° |
| 2026-04-26 23:13 | -40.01670 | 172.85889 | 38239 ft | 409 kts | 216° |
| 2026-04-26 23:14 | -40.06372 | 172.81792 | 38236 ft | 408 kts | 216° |
| 2026-04-26 23:14 | -40.11097 | 172.77666 | 38240 ft | 408 kts | 216° |
| 2026-04-26 23:15 | -40.15823 | 172.73530 | 38246 ft | 407 kts | 216° |
| 2026-04-26 23:15 | -40.20534 | 172.69401 | 38241 ft | 407 kts | 216° |
| 2026-04-26 23:16 | -40.25214 | 172.65291 | 38245 ft | 407 kts | 216° |
| 2026-04-26 23:16 | -40.29924 | 172.61147 | 38245 ft | 407 kts | 216° |
| 2026-04-26 23:17 | -40.34587 | 172.57042 | 38248 ft | 406 kts | 216° |
| 2026-04-26 23:17 | -40.39283 | 172.52900 | 38247 ft | 406 kts | 216° |
| 2026-04-26 23:18 | -40.43964 | 172.48760 | 38249 ft | 405 kts | 216° |
| 2026-04-26 23:18 | -40.48640 | 172.44615 | 38248 ft | 405 kts | 216° |
| 2026-04-26 23:19 | -40.53307 | 172.40464 | 38254 ft | 405 kts | 216° |
| 2026-04-26 23:19 | -40.57949 | 172.36343 | 38248 ft | 405 kts | 216° |
| 2026-04-26 23:20 | -40.62619 | 172.32185 | 38246 ft | 404 kts | 216° |
| 2026-04-26 23:20 | -40.67276 | 172.28026 | 38242 ft | 405 kts | 215° |
| 2026-04-26 23:21 | -40.71922 | 172.23880 | 38210 ft | 403 kts | 214° |
| 2026-04-26 23:21 | -40.76553 | 172.19743 | 38213 ft | 404 kts | 215° |
| 2026-04-26 23:22 | -40.81204 | 172.15572 | 38221 ft | 405 kts | 215° |
| 2026-04-26 23:22 | -40.85843 | 172.11401 | 38223 ft | 405 kts | 215° |
| 2026-04-26 23:23 | -40.90508 | 172.07198 | 38234 ft | 405 kts | 215° |
| 2026-04-26 23:23 | -40.95154 | 172.03020 | 38238 ft | 406 kts | 215° |
| 2026-04-26 23:24 | -40.99819 | 171.98808 | 38250 ft | 406 kts | 215° |
| 2026-04-26 23:24 | -41.04488 | 171.94584 | 38249 ft | 406 kts | 215° |
| 2026-04-26 23:25 | -41.09149 | 171.90356 | 38254 ft | 405 kts | 215° |
| 2026-04-26 23:25 | -41.13788 | 171.86148 | 38254 ft | 405 kts | 215° |
| 2026-04-26 23:26 | -41.18445 | 171.81919 | 38253 ft | 405 kts | 215° |
| 2026-04-26 23:26 | -41.23096 | 171.77683 | 38258 ft | 405 kts | 215° |
| 2026-04-26 23:27 | -41.27726 | 171.73454 | 38256 ft | 405 kts | 215° |
| 2026-04-26 23:27 | -41.32386 | 171.69195 | 38257 ft | 405 kts | 215° |
| 2026-04-26 23:28 | -41.37039 | 171.64937 | 38259 ft | 405 kts | 215° |
| 2026-04-26 23:28 | -41.41662 | 171.60704 | 38260 ft | 405 kts | 215° |
| 2026-04-26 23:29 | -41.46314 | 171.56431 | 38259 ft | 405 kts | 215° |
| 2026-04-26 23:29 | -41.50954 | 171.52157 | 38260 ft | 405 kts | 215° |
| 2026-04-26 23:30 | -41.55572 | 171.47897 | 38258 ft | 405 kts | 215° |
| 2026-04-26 23:30 | -41.60215 | 171.43612 | 38253 ft | 405 kts | 215° |
| 2026-04-26 23:31 | -41.64854 | 171.39321 | 38256 ft | 405 kts | 215° |
| 2026-04-26 23:31 | -41.69462 | 171.35053 | 38259 ft | 405 kts | 215° |
| 2026-04-26 23:32 | -41.74093 | 171.30756 | 38259 ft | 405 kts | 215° |
| 2026-04-26 23:32 | -41.78725 | 171.26444 | 38259 ft | 405 kts | 215° |
| 2026-04-26 23:33 | -41.83325 | 171.22148 | 38263 ft | 405 kts | 216° |
| 2026-04-26 23:33 | -41.87944 | 171.17827 | 38263 ft | 405 kts | 216° |
| 2026-04-26 23:34 | -41.92564 | 171.13493 | 38258 ft | 404 kts | 216° |
| 2026-04-26 23:34 | -41.97178 | 171.09157 | 38258 ft | 404 kts | 216° |
| 2026-04-26 23:35 | -42.01756 | 171.04852 | 38262 ft | 404 kts | 216° |
| 2026-04-26 23:35 | -42.06356 | 171.00514 | 38261 ft | 403 kts | 216° |
| 2026-04-26 23:36 | -42.10950 | 170.96149 | 38261 ft | 403 kts | 216° |
| 2026-04-26 23:36 | -42.15543 | 170.91798 | 38257 ft | 403 kts | 216° |
| 2026-04-26 23:37 | -42.20110 | 170.87484 | 38258 ft | 403 kts | 216° |
| 2026-04-26 23:37 | -42.24712 | 170.83124 | 38262 ft | 403 kts | 216° |
| 2026-04-26 23:38 | -42.29311 | 170.78755 | 38264 ft | 403 kts | 216° |
| 2026-04-26 23:38 | -42.33874 | 170.74399 | 38262 ft | 403 kts | 216° |
| 2026-04-26 23:39 | -42.38460 | 170.70011 | 38270 ft | 404 kts | 216° |
| 2026-04-26 23:39 | -42.43052 | 170.65604 | 38271 ft | 404 kts | 216° |
| 2026-04-26 23:40 | -42.47620 | 170.61222 | 38267 ft | 404 kts | 216° |
| 2026-04-26 23:40 | -42.52212 | 170.56817 | 38270 ft | 404 kts | 216° |
| 2026-04-26 23:41 | -42.56810 | 170.52398 | 38264 ft | 404 kts | 216° |
| 2026-04-26 23:41 | -42.61407 | 170.47964 | 38272 ft | 405 kts | 217° |
| 2026-04-26 23:42 | -42.65973 | 170.43564 | 38271 ft | 405 kts | 217° |
| 2026-04-26 23:42 | -42.72864 | 170.36887 | 38274 ft | 405 kts | 217° |
| 2026-04-26 23:43 | -42.77428 | 170.32455 | 38273 ft | 405 kts | 217° |
| 2026-04-26 23:43 | -42.82025 | 170.27997 | 38271 ft | 405 kts | 217° |
| 2026-04-26 23:44 | -42.86615 | 170.23520 | 38275 ft | 405 kts | 217° |
| 2026-04-26 23:44 | -42.91173 | 170.19067 | 38269 ft | 405 kts | 217° |
| 2026-04-26 23:45 | -42.95011 | 170.15313 | 38276 ft | 405 kts | 217° |
| 2026-04-26 23:45 | -43.00344 | 170.10087 | 38274 ft | 405 kts | 217° |
| 2026-04-26 23:46 | -43.04933 | 170.05587 | 38273 ft | 406 kts | 217° |
| 2026-04-26 23:46 | -43.09518 | 170.01077 | 38273 ft | 406 kts | 218° |
| 2026-04-26 23:47 | -43.14108 | 169.96553 | 38277 ft | 406 kts | 218° |
| 2026-04-26 23:47 | -43.18669 | 169.92050 | 38273 ft | 406 kts | 218° |
| 2026-04-26 23:48 | -43.23258 | 169.87518 | 38282 ft | 406 kts | 218° |
| 2026-04-26 23:48 | -43.27076 | 169.83741 | 38276 ft | 406 kts | 218° |
| 2026-04-26 23:49 | -43.32408 | 169.78458 | 38270 ft | 406 kts | 218° |
| 2026-04-26 23:49 | -43.36223 | 169.74665 | 38273 ft | 406 kts | 218° |
| 2026-04-26 23:50 | -43.41550 | 169.69358 | 38270 ft | 406 kts | 218° |
| 2026-04-26 23:50 | -43.45388 | 169.65529 | 38283 ft | 406 kts | 218° |
| 2026-04-26 23:51 | -43.49944 | 169.60967 | 38270 ft | 406 kts | 218° |
| 2026-04-26 23:51 | -43.54515 | 169.56381 | 38270 ft | 406 kts | 218° |
| 2026-04-26 23:52 | -43.59092 | 169.51794 | 38278 ft | 406 kts | 218° |
| 2026-04-26 23:52 | -43.63659 | 169.47191 | 38268 ft | 406 kts | 219° |
| 2026-04-26 23:53 | -43.68204 | 169.42616 | 38266 ft | 406 kts | 219° |
| 2026-04-26 23:53 | -43.72775 | 169.38011 | 38268 ft | 406 kts | 219° |
| 2026-04-26 23:54 | -43.77343 | 169.33392 | 38270 ft | 406 kts | 219° |
| 2026-04-26 23:54 | -43.81904 | 169.28755 | 38261 ft | 406 kts | 219° |
| 2026-04-26 23:55 | -43.86470 | 169.24127 | 37902 ft | 406 kts | 219° |
| 2026-04-26 23:55 | -43.88747 | 169.21818 | 37626 ft | 406 kts | 219° |
| 2026-04-26 23:55 | -43.91002 | 169.19525 | 37359 ft | 406 kts | 219° |
| 2026-04-26 23:56 | -43.93286 | 169.17196 | 37088 ft | 407 kts | 219° |
| 2026-04-26 23:56 | -43.95573 | 169.14858 | 36704 ft | 407 kts | 219° |
| 2026-04-26 23:56 | -43.97855 | 169.12524 | 36055 ft | 408 kts | 219° |
| 2026-04-26 23:56 | -44.00150 | 169.10179 | 35350 ft | 410 kts | 219° |
| 2026-04-26 23:57 | -44.02463 | 169.07814 | 34636 ft | 412 kts | 219° |
| 2026-04-26 23:57 | -44.04777 | 169.05447 | 33818 ft | 415 kts | 219° |
| 2026-04-26 23:57 | -44.07112 | 169.03054 | 32947 ft | 418 kts | 219° |
| 2026-04-26 23:57 | -44.09458 | 169.00650 | 32129 ft | 420 kts | 219° |
| 2026-04-26 23:58 | -44.11766 | 168.98283 | 31631 ft | 414 kts | 219° |
| 2026-04-26 23:58 | -44.14076 | 168.95909 | 31105 ft | 410 kts | 219° |
| 2026-04-26 23:58 | -44.16366 | 168.93551 | 30522 ft | 407 kts | 219° |
| 2026-04-26 23:58 | -44.18643 | 168.91210 | 29896 ft | 405 kts | 219° |
| 2026-04-26 23:59 | -44.20892 | 168.88894 | 29332 ft | 400 kts | 219° |
| 2026-04-26 23:59 | -44.23117 | 168.86598 | 28770 ft | 395 kts | 219° |
| 2026-04-26 23:59 | -44.25318 | 168.84323 | 28216 ft | 392 kts | 219° |
| 2026-04-26 23:59 | -44.27501 | 168.82063 | 27671 ft | 388 kts | 220° |
| 2026-04-27 00:00 | -44.29634 | 168.79848 | 27129 ft | 385 kts | 220° |
| 2026-04-27 00:00 | -44.31786 | 168.77611 | 26594 ft | 382 kts | 220° |
| 2026-04-27 00:00 | -44.33918 | 168.75394 | 26063 ft | 380 kts | 220° |
| 2026-04-27 00:00 | -44.36041 | 168.73184 | 25543 ft | 377 kts | 220° |
| 2026-04-27 00:01 | -44.38139 | 168.70996 | 25027 ft | 376 kts | 220° |
| 2026-04-27 00:01 | -44.40206 | 168.68836 | 24533 ft | 374 kts | 220° |
| 2026-04-27 00:01 | -44.42288 | 168.66661 | 24046 ft | 373 kts | 220° |
| 2026-04-27 00:01 | -44.44366 | 168.64490 | 23526 ft | 372 kts | 220° |
| 2026-04-27 00:02 | -44.46433 | 168.62334 | 23039 ft | 368 kts | 220° |
| 2026-04-27 00:02 | -44.48487 | 168.60191 | 22569 ft | 366 kts | 220° |
| 2026-04-27 00:02 | -44.50521 | 168.58070 | 22106 ft | 363 kts | 220° |
| 2026-04-27 00:02 | -44.52541 | 168.55958 | 21624 ft | 361 kts | 220° |
| 2026-04-27 00:03 | -44.54548 | 168.53854 | 21156 ft | 358 kts | 220° |
| 2026-04-27 00:03 | -44.56536 | 168.51766 | 20659 ft | 356 kts | 220° |
| 2026-04-27 00:03 | -44.58484 | 168.49717 | 20183 ft | 354 kts | 220° |
| 2026-04-27 00:03 | -44.60418 | 168.47687 | 19997 ft | 335 kts | 220° |
| 2026-04-27 00:04 | -44.62242 | 168.45824 | 19792 ft | 314 kts | 216° |
| 2026-04-27 00:04 | -44.64249 | 168.44658 | 19354 ft | 317 kts | 197° |
| 2026-04-27 00:04 | -44.66464 | 168.44570 | 19116 ft | 323 kts | 177° |
| 2026-04-27 00:04 | -44.68621 | 168.45628 | 18855 ft | 337 kts | 156° |
| 2026-04-27 00:05 | -44.70530 | 168.47550 | 18339 ft | 345 kts | 149° |
| 2026-04-27 00:05 | -44.72428 | 168.49629 | 17974 ft | 343 kts | 148° |
| 2026-04-27 00:05 | -44.74140 | 168.51541 | 17490 ft | 338 kts | 148° |
| 2026-04-27 00:05 | -44.76036 | 168.53666 | 16848 ft | 332 kts | 148° |
| 2026-04-27 00:06 | -44.77841 | 168.55682 | 16142 ft | 330 kts | 148° |
| 2026-04-27 00:06 | -44.79712 | 168.57441 | 15539 ft | 317 kts | 158° |
| 2026-04-27 00:06 | -44.81628 | 168.58931 | 14961 ft | 312 kts | 158° |
| 2026-04-27 00:06 | -44.83520 | 168.60391 | 14413 ft | 307 kts | 158° |
| 2026-04-27 00:07 | -44.85357 | 168.61806 | 13882 ft | 302 kts | 158° |
| 2026-04-27 00:07 | -44.87183 | 168.63235 | 13338 ft | 299 kts | 154° |
| 2026-04-27 00:07 | -44.88800 | 168.65177 | 12708 ft | 316 kts | 136° |
| 2026-04-27 00:07 | -44.89904 | 168.67894 | 12209 ft | 324 kts | 113° |
| 2026-04-27 00:08 | -44.90319 | 168.71027 | 11816 ft | 328 kts | 96° |
| 2026-04-27 00:08 | -44.90423 | 168.74207 | 11548 ft | 318 kts | 96° |
| 2026-04-27 00:08 | -44.90522 | 168.77274 | 11394 ft | 308 kts | 96° |
| 2026-04-27 00:08 | -44.90619 | 168.80249 | 11271 ft | 299 kts | 96° |
| 2026-04-27 00:09 | -44.90717 | 168.83122 | 10911 ft | 300 kts | 97° |
| 2026-04-27 00:09 | -44.90819 | 168.86080 | 10458 ft | 298 kts | 96° |
| 2026-04-27 00:09 | -44.90910 | 168.88959 | 10042 ft | 290 kts | 96° |
| 2026-04-27 00:09 | -44.90995 | 168.91748 | 9625 ft | 280 kts | 96° |
| 2026-04-27 00:10 | -44.91076 | 168.94440 | 9224 ft | 269 kts | 96° |
| 2026-04-27 00:10 | -44.91156 | 168.97031 | 8853 ft | 260 kts | 95° |
| 2026-04-27 00:10 | -44.91425 | 168.99524 | 8509 ft | 257 kts | 110° |
| 2026-04-27 00:10 | -44.92133 | 169.01833 | 8131 ft | 257 kts | 126° |
| 2026-04-27 00:11 | -44.93197 | 169.03795 | 7770 ft | 245 kts | 140° |
| 2026-04-27 00:11 | -44.94482 | 169.05270 | 7449 ft | 232 kts | 153° |
| 2026-04-27 00:11 | -44.95902 | 169.06263 | 7131 ft | 224 kts | 166° |
| 2026-04-27 00:11 | -44.97359 | 169.06786 | 6824 ft | 215 kts | 178° |
| 2026-04-27 00:12 | -44.98822 | 169.06865 | 6536 ft | 204 kts | 191° |
| 2026-04-27 00:12 | -45.00161 | 169.06442 | 6264 ft | 196 kts | 205° |
| 2026-04-27 00:12 | -45.01348 | 169.05577 | 5966 ft | 188 kts | 219° |
| 2026-04-27 00:12 | -45.02312 | 169.04373 | 5697 ft | 182 kts | 232° |
| 2026-04-27 00:13 | -45.03020 | 169.02937 | 5455 ft | 176 kts | 244° |
| 2026-04-27 00:13 | -45.03471 | 169.01340 | 5208 ft | 174 kts | 257° |
| 2026-04-27 00:13 | -45.03654 | 168.99666 | 4974 ft | 172 kts | 268° |
| 2026-04-27 00:13 | -45.03600 | 168.97971 | 4718 ft | 173 kts | 278° |
| 2026-04-27 00:14 | -45.03318 | 168.96314 | 4461 ft | 173 kts | 288° |
| 2026-04-27 00:14 | -45.02830 | 168.94797 | 4239 ft | 172 kts | 299° |
| 2026-04-27 00:14 | -45.02199 | 168.93369 | 3984 ft | 170 kts | 301° |
| 2026-04-27 00:14 | -45.01574 | 168.91957 | 3727 ft | 169 kts | 301° |
| 2026-04-27 00:15 | -45.00952 | 168.90545 | 3488 ft | 169 kts | 302° |
| 2026-04-27 00:15 | -45.00353 | 168.89158 | 3239 ft | 158 kts | 299° |
| 2026-04-27 00:15 | -44.99988 | 168.87765 | 3035 ft | 146 kts | 284° |
| 2026-04-27 00:15 | -44.99882 | 168.86355 | 2837 ft | 143 kts | 270° |
| 2026-04-27 00:16 | -45.00010 | 168.84969 | 2646 ft | 141 kts | 260° |
| 2026-04-27 00:16 | -45.00203 | 168.83616 | 2440 ft | 139 kts | 260° |
| 2026-04-27 00:16 | -45.00395 | 168.82278 | 2237 ft | 138 kts | 260° |
| 2026-04-27 00:16 | -45.00591 | 168.80953 | 2036 ft | 138 kts | 257° |
| 2026-04-27 00:17 | -45.00872 | 168.79653 | 1850 ft | 138 kts | 252° |
| 2026-04-27 00:17 | -45.01169 | 168.78377 | 1626 ft | 138 kts | 252° |
| 2026-04-27 00:17 | -45.01456 | 168.77072 | 1383 ft | 139 kts | 257° |
| 2026-04-27 00:17 | -45.01662 | 168.75733 | 1206 ft | 140 kts | 257° |
| 2026-04-27 00:18 | -45.01833 | 168.74634 | 1168 ft | 89 kts | 257° |
| 2026-04-27 00:18 | -45.01913 | 168.74149 | 1164 ft | 17 kts | 236° |
| 2026-04-27 00:18 | -45.02019 | 168.74064 | 1164 ft | 18 kts | 206° |
| 2026-04-27 00:18 | -45.02090 | 168.74077 | 1163 ft | 11 kts | 134° |
| 2026-04-27 00:19 | -45.02130 | 168.74070 | 1162 ft | 5 kts | 204° |
| 2026-04-27 00:19 | -45.02145 | 168.74060 | 1162 ft | 0 kts | 206° |
| 2026-04-27 00:19 | -45.02146 | 168.74059 | 1162 ft | 0 kts | 206° |